Time;durP1;ratioP1;P1;durP2;ratioP2;P2;SDS_P1;SDS_P2;PMS_P1;PMS_P2;Temp;Humidity;BMP_temperature;BMP_pressure;BME280_temperature;BME280_humidity;BME280_pressure;Samples;Min_cycle;Max_cycle;Signal;HPM_P1;HPM_P2
2021/04/02 00:01:05;;;;;;;14.05;1.63;;;;;;;;;;4961691;28;20037;-57
2021/04/02 00:03:34;;;;;;;11.73;1.63;;;;;;;;;;4960500;28;20493;-57
2021/04/02 00:06:07;;;;;;;28.83;2.08;;;;;;;;;;4961443;28;20050;-57
2021/04/02 00:08:32;;;;;;;12.02;1.60;;;;;;;;;;4961409;28;20476;-56
2021/04/02 00:11:05;;;;;;;10.32;1.83;;;;;;;;;;4960966;28;20122;-56
2021/04/02 00:13:35;;;;;;;10.23;1.80;;;;;;;;;;4960474;28;20498;-55
2021/04/02 00:16:02;;;;;;;18.48;1.98;;;;;;;;;;4964772;28;20035;-56
2021/04/02 00:18:28;;;;;;;9.57;1.30;;;;;;;;;;4964558;28;20800;-56
2021/04/02 00:20:55;;;;;;;7.45;1.42;;;;;;;;;;4966206;28;20035;-51
2021/04/02 00:23:21;;;;;;;22.55;2.38;;;;;;;;;;4962878;28;20039;-56
2021/04/02 00:25:47;;;;;;;15.73;1.95;;;;;;;;;;4964608;28;20042;-56
2021/04/02 00:28:13;;;;;;;7.63;1.45;;;;;;;;;;4965618;28;20055;-54
2021/04/02 00:30:41;;;;;;;8.73;1.35;;;;;;;;;;4966688;28;20097;-56
2021/04/02 00:33:07;;;;;;;10.60;2.00;;;;;;;;;;4946450;28;20041;-53
2021/04/02 00:35:33;;;;;;;10.93;1.17;;;;;;;;;;4962842;28;20122;-53
2021/04/02 00:37:59;;;;;;;24.08;2.08;;;;;;;;;;4965496;28;20066;-55
2021/04/02 00:40:28;;;;;;;23.52;1.80;;;;;;;;;;4964078;28;20071;-54
2021/04/02 00:42:55;;;;;;;31.38;2.38;;;;;;;;;;4964287;28;20126;-55
2021/04/02 00:45:21;;;;;;;14.82;1.77;;;;;;;;;;4963594;28;20057;-55
2021/04/02 00:47:55;;;;;;;13.43;1.88;;;;;;;;;;4960353;28;20618;-53
2021/04/02 00:50:26;;;;;;;14.52;1.70;;;;;;;;;;4963993;28;20031;-58
2021/04/02 00:52:52;;;;;;;14.18;1.85;;;;;;;;;;4961791;28;20125;-54
2021/04/02 00:55:18;;;;;;;12.95;1.60;;;;;;;;;;4961846;28;20045;-54
2021/04/02 00:57:44;;;;;;;8.13;1.48;;;;;;;;;;4964308;28;20128;-57
2021/04/02 01:00:10;;;;;;;20.42;2.03;;;;;;;;;;4964962;28;20094;-58
2021/04/02 01:02:36;;;;;;;12.75;1.50;;;;;;;;;;4962497;28;20883;-56
2021/04/02 01:05:10;;;;;;;13.00;1.60;;;;;;;;;;4963729;28;20121;-55
2021/04/02 01:07:36;;;;;;;4.63;1.05;;;;;;;;;;4964158;28;20424;-55
2021/04/02 01:10:04;;;;;;;10.25;1.75;;;;;;;;;;4964258;28;20038;-58
2021/04/02 01:12:32;;;;;;;17.83;1.90;;;;;;;;;;4970059;28;20525;-57
2021/04/02 01:14:58;;;;;;;15.50;1.80;;;;;;;;;;4964070;28;20046;-56
2021/04/02 01:17:24;;;;;;;11.95;1.58;;;;;;;;;;4962726;28;20046;-57
2021/04/02 01:19:52;;;;;;;17.92;1.88;;;;;;;;;;4963456;28;20050;-53
2021/04/02 01:22:21;;;;;;;7.80;1.42;;;;;;;;;;4963464;28;20027;-55
2021/04/02 01:24:53;;;;;;;9.02;1.50;;;;;;;;;;4963784;28;20389;-54
2021/04/02 01:27:36;;;;;;;16.35;1.60;;;;;;;;;;4961517;28;20061;-57
2021/04/02 01:30:07;;;;;;;8.23;1.50;;;;;;;;;;4963694;28;20043;-56
2021/04/02 01:32:35;;;;;;;11.57;1.45;;;;;;;;;;4961397;28;20146;-54
2021/04/02 01:35:10;;;;;;;10.30;1.58;;;;;;;;;;4963052;28;20702;-55
2021/04/02 01:38:05;;;;;;;7.45;1.27;;;;;;;;;;4963980;28;20052;-57
2021/04/02 01:40:34;;;;;;;6.53;1.20;;;;;;;;;;4961101;28;20097;-53
2021/04/02 01:43:01;;;;;;;8.32;1.35;;;;;;;;;;4964464;28;20039;-56
2021/04/02 01:45:27;;;;;;;6.25;1.20;;;;;;;;;;4962333;28;20050;-57
2021/04/02 01:47:54;;;;;;;6.97;1.38;;;;;;;;;;4963391;28;20292;-53
2021/04/02 01:50:20;;;;;;;14.50;1.35;;;;;;;;;;4963020;28;20360;-56
2021/04/02 01:52:46;;;;;;;3.88;1.20;;;;;;;;;;4964077;28;20050;-56
2021/04/02 01:55:14;;;;;;;4.88;1.10;;;;;;;;;;4964155;28;20777;-58
2021/04/02 01:57:40;;;;;;;9.73;1.42;;;;;;;;;;4963894;28;20047;-58
2021/04/02 02:00:11;;;;;;;6.82;1.42;;;;;;;;;;4964063;28;20039;-56
2021/04/02 02:02:37;;;;;;;6.57;0.93;;;;;;;;;;4964501;28;20438;-58
2021/04/02 02:05:04;;;;;;;7.40;1.40;;;;;;;;;;4963483;28;20031;-56
2021/04/02 02:07:30;;;;;;;4.57;1.58;;;;;;;;;;4962319;28;20061;-57
2021/04/02 02:09:57;;;;;;;8.23;1.42;;;;;;;;;;4963369;28;20391;-58
2021/04/02 02:12:23;;;;;;;7.03;1.67;;;;;;;;;;4963033;28;20508;-58
2021/04/02 02:14:50;;;;;;;7.03;1.52;;;;;;;;;;4961828;28;20043;-57
2021/04/02 02:17:22;;;;;;;6.55;1.70;;;;;;;;;;4964087;28;20039;-58
2021/04/02 02:19:48;;;;;;;9.07;2.15;;;;;;;;;;4960763;28;20027;-56
2021/04/02 02:22:16;;;;;;;5.05;1.50;;;;;;;;;;4963619;28;20136;-55
2021/04/02 02:24:42;;;;;;;8.95;1.55;;;;;;;;;;4962722;28;20043;-57
2021/04/02 02:27:08;;;;;;;6.70;1.58;;;;;;;;;;4964283;28;20051;-53
2021/04/02 02:29:34;;;;;;;9.85;1.60;;;;;;;;;;4961550;28;20154;-58
2021/04/02 02:32:01;;;;;;;10.02;1.98;;;;;;;;;;4964398;28;20498;-58
2021/04/02 02:34:27;;;;;;;9.07;2.08;;;;;;;;;;4962047;28;20447;-57
2021/04/02 02:36:53;;;;;;;5.63;1.40;;;;;;;;;;4964062;28;20045;-54
2021/04/02 02:39:19;;;;;;;9.80;1.38;;;;;;;;;;4959559;28;20042;-57
2021/04/02 02:41:45;;;;;;;6.80;1.40;;;;;;;;;;4962999;28;20053;-56
2021/04/02 02:44:11;;;;;;;11.02;1.65;;;;;;;;;;4962144;28;20039;-57
2021/04/02 02:46:37;;;;;;;9.65;2.42;;;;;;;;;;4958738;28;20085;-57
2021/04/02 02:49:14;;;;;;;5.60;1.63;;;;;;;;;;4948123;28;20044;-56
2021/04/02 02:51:41;;;;;;;11.95;1.83;;;;;;;;;;4943967;28;21302;-55
2021/04/02 02:54:09;;;;;;;9.88;2.20;;;;;;;;;;4942653;28;20035;-54
2021/04/02 02:56:36;;;;;;;5.18;1.35;;;;;;;;;;4941931;28;20058;-55
2021/04/02 02:59:03;;;;;;;7.38;1.40;;;;;;;;;;4942691;28;20126;-58
2021/04/02 03:01:31;;;;;;;14.30;1.85;;;;;;;;;;4943378;28;20035;-57
2021/04/02 03:03:57;;;;;;;9.48;1.67;;;;;;;;;;4944792;28;20106;-57
2021/04/02 03:06:24;;;;;;;10.90;2.10;;;;;;;;;;4942332;28;20047;-55
2021/04/02 03:08:52;;;;;;;8.07;1.95;;;;;;;;;;4945278;28;20121;-55
2021/04/02 03:11:19;;;;;;;9.50;2.05;;;;;;;;;;4941746;28;20113;-56
2021/04/02 03:13:46;;;;;;;7.70;1.73;;;;;;;;;;4943748;28;20038;-57
2021/04/02 03:16:12;;;;;;;7.65;1.77;;;;;;;;;;4941894;28;20519;-56
2021/04/02 03:18:38;;;;;;;7.03;2.00;;;;;;;;;;4944186;28;21535;-58
2021/04/02 03:21:08;;;;;;;8.07;1.90;;;;;;;;;;4944839;28;20429;-57
2021/04/02 03:23:35;;;;;;;7.85;2.58;;;;;;;;;;4942786;28;20035;-57
2021/04/02 03:26:01;;;;;;;8.52;1.70;;;;;;;;;;4975937;28;20035;-58
2021/04/02 03:28:28;;;;;;;10.57;3.10;;;;;;;;;;4943348;28;20046;-57
2021/04/02 03:30:55;;;;;;;7.38;2.40;;;;;;;;;;4944020;28;20035;-58
2021/04/02 03:33:26;;;;;;;10.00;1.98;;;;;;;;;;4944890;28;20444;-56
2021/04/02 03:35:57;;;;;;;10.88;2.30;;;;;;;;;;4948447;28;20054;-55
2021/04/02 03:38:24;;;;;;;11.15;2.28;;;;;;;;;;4934523;28;20074;-58
2021/04/02 03:40:51;;;;;;;9.30;2.28;;;;;;;;;;4962889;28;20077;-57
2021/04/02 03:43:17;;;;;;;11.45;2.53;;;;;;;;;;4963526;28;20042;-60
2021/04/02 03:45:45;;;;;;;9.48;2.03;;;;;;;;;;4963285;28;20113;-58
2021/04/02 03:48:12;;;;;;;10.40;2.50;;;;;;;;;;4960551;28;20042;-56
2021/04/02 03:50:40;;;;;;;12.75;2.30;;;;;;;;;;4957104;28;20047;-56
2021/04/02 03:53:07;;;;;;;10.63;2.67;;;;;;;;;;4961260;28;20716;-54
2021/04/02 03:55:35;;;;;;;10.45;2.10;;;;;;;;;;4959192;28;20055;-55
2021/04/02 03:58:02;;;;;;;8.43;1.98;;;;;;;;;;4958695;28;20527;-55
2021/04/02 04:00:30;;;;;;;9.80;1.92;;;;;;;;;;4959844;28;20047;-55
2021/04/02 04:02:57;;;;;;;7.68;2.15;;;;;;;;;;4960675;28;20046;-55
2021/04/02 04:05:24;;;;;;;14.05;2.13;;;;;;;;;;4958775;28;20531;-57
2021/04/02 04:07:53;;;;;;;9.88;2.15;;;;;;;;;;4951602;28;20050;-55
2021/04/02 04:10:20;;;;;;;8.38;1.88;;;;;;;;;;4957990;28;20050;-57
2021/04/02 04:12:48;;;;;;;7.75;2.10;;;;;;;;;;4958450;28;20498;-57
2021/04/02 04:15:14;;;;;;;5.68;2.15;;;;;;;;;;4957938;28;20097;-58
2021/04/02 04:17:41;;;;;;;7.95;2.20;;;;;;;;;;4959215;28;20531;-55
2021/04/02 04:20:09;;;;;;;9.93;2.40;;;;;;;;;;4962525;28;20039;-54
2021/04/02 04:22:36;;;;;;;8.23;2.55;;;;;;;;;;4989507;28;20058;-56
2021/04/02 04:25:04;;;;;;;8.43;2.25;;;;;;;;;;4958539;28;20519;-57
2021/04/02 04:27:31;;;;;;;6.75;1.83;;;;;;;;;;4958576;28;20507;-57
2021/04/02 04:29:57;;;;;;;13.00;2.20;;;;;;;;;;4959360;28;20149;-53
2021/04/02 04:32:23;;;;;;;9.82;2.30;;;;;;;;;;4960018;28;20054;-55
2021/04/02 04:34:49;;;;;;;10.13;2.10;;;;;;;;;;4957018;28;20054;-57
2021/04/02 04:37:17;;;;;;;11.93;2.00;;;;;;;;;;4959038;28;20519;-55
2021/04/02 04:39:44;;;;;;;7.97;1.98;;;;;;;;;;4959575;28;20134;-57
2021/04/02 04:42:12;;;;;;;7.72;1.70;;;;;;;;;;4960311;28;20137;-57
2021/04/02 04:44:38;;;;;;;10.02;2.17;;;;;;;;;;4957593;28;20053;-56
2021/04/02 04:47:05;;;;;;;6.30;1.73;;;;;;;;;;4960733;28;20050;-57
2021/04/02 04:49:31;;;;;;;8.25;2.20;;;;;;;;;;4959081;28;20341;-56
2021/04/02 04:51:57;;;;;;;7.38;1.40;;;;;;;;;;4960472;28;20364;-54
2021/04/02 04:54:24;;;;;;;7.70;1.90;;;;;;;;;;4956925;28;20122;-57
2021/04/02 04:56:51;;;;;;;6.85;1.83;;;;;;;;;;4959351;28;20458;-56
2021/04/02 04:59:18;;;;;;;4.80;1.80;;;;;;;;;;4958247;28;20035;-51
2021/04/02 05:01:45;;;;;;;7.57;1.60;;;;;;;;;;4957982;28;20149;-55
2021/04/02 05:04:12;;;;;;;8.77;1.92;;;;;;;;;;4954973;28;20133;-55
2021/04/02 05:06:39;;;;;;;6.65;1.67;;;;;;;;;;4961995;28;20301;-56
2021/04/02 05:09:05;;;;;;;9.82;2.08;;;;;;;;;;4963290;28;21039;-53
2021/04/02 05:11:32;;;;;;;7.13;2.10;;;;;;;;;;4961177;28;20035;-54
2021/04/02 05:13:59;;;;;;;11.32;2.30;;;;;;;;;;4960272;28;20046;-54
2021/04/02 05:16:25;;;;;;;7.85;2.40;;;;;;;;;;4958376;28;20047;-56
2021/04/02 05:18:52;;;;;;;7.13;2.33;;;;;;;;;;4960567;28;20399;-55
2021/04/02 05:21:18;;;;;;;7.03;1.85;;;;;;;;;;4962738;28;20133;-55
2021/04/02 05:23:44;;;;;;;7.22;2.17;;;;;;;;;;4962646;28;20164;-55
2021/04/02 05:26:13;;;;;;;8.73;2.40;;;;;;;;;;4960427;28;20049;-55
2021/04/02 05:28:40;;;;;;;9.98;2.50;;;;;;;;;;4959646;28;20525;-56
2021/04/02 05:31:06;;;;;;;5.75;1.67;;;;;;;;;;4993860;28;20046;-53
2021/04/02 05:33:32;;;;;;;8.00;2.10;;;;;;;;;;4960141;28;20061;-54
2021/04/02 05:35:58;;;;;;;6.22;2.00;;;;;;;;;;4952949;28;20090;-55
2021/04/02 05:38:23;;;;;;;5.32;1.77;;;;;;;;;;4955361;28;20046;-56
2021/04/02 05:40:49;;;;;;;5.43;1.85;;;;;;;;;;4964113;28;20120;-56
2021/04/02 05:43:18;;;;;;;6.50;2.10;;;;;;;;;;4962745;28;20043;-54
2021/04/02 05:45:45;;;;;;;6.40;1.75;;;;;;;;;;4960951;28;20049;-57
2021/04/02 05:48:11;;;;;;;4.65;1.67;;;;;;;;;;4960642;28;20055;-56
2021/04/02 05:50:38;;;;;;;12.23;3.60;;;;;;;;;;4961407;28;20038;-57
2021/04/02 05:53:05;;;;;;;9.73;2.28;;;;;;;;;;4962724;28;20049;-57
2021/04/02 05:55:35;;;;;;;8.43;1.77;;;;;;;;;;4959701;28;20065;-55
2021/04/02 05:58:02;;;;;;;5.25;1.42;;;;;;;;;;4961123;28;20038;-56
2021/04/02 06:00:28;;;;;;;7.20;1.73;;;;;;;;;;4961329;28;20130;-56
2021/04/02 06:02:55;;;;;;;5.00;1.70;;;;;;;;;;4960113;28;20049;-57
2021/04/02 06:05:21;;;;;;;8.02;2.20;;;;;;;;;;4949679;28;20900;-55
2021/04/02 06:07:47;;;;;;;7.43;1.80;;;;;;;;;;4960892;28;20081;-55
2021/04/02 06:10:13;;;;;;;6.72;1.70;;;;;;;;;;4961884;28;20042;-57
2021/04/02 06:12:41;;;;;;;4.72;1.88;;;;;;;;;;4962251;28;20133;-56
2021/04/02 06:15:07;;;;;;;11.45;2.95;;;;;;;;;;4962203;28;20039;-58
2021/04/02 06:17:51;;;;;;;5.53;1.52;;;;;;;;;;4966057;28;20043;-57
2021/04/02 06:20:17;;;;;;;8.68;2.13;;;;;;;;;;4961192;28;20129;-57
2021/04/02 06:22:43;;;;;;;6.30;2.17;;;;;;;;;;4962848;28;20109;-56
2021/04/02 06:25:09;;;;;;;7.00;2.45;;;;;;;;;;4960725;28;20046;-55
2021/04/02 06:27:35;;;;;;;6.57;1.92;;;;;;;;;;4965540;28;20057;-53
2021/04/02 06:30:03;;;;;;;10.68;2.30;;;;;;;;;;4961798;28;20488;-55
2021/04/02 06:32:34;;;;;;;7.60;1.80;;;;;;;;;;4960518;28;20177;-56
2021/04/02 06:35:05;;;;;;;6.70;2.10;;;;;;;;;;4961066;28;20034;-56
2021/04/02 06:37:32;;;;;;;7.53;2.00;;;;;;;;;;4961852;28;20138;-56
2021/04/02 06:39:58;;;;;;;7.20;1.70;;;;;;;;;;4962008;28;20093;-57
2021/04/02 06:42:28;;;;;;;11.80;2.30;;;;;;;;;;4960268;28;20487;-54
2021/04/02 06:45:00;;;;;;;7.93;2.38;;;;;;;;;;4961240;28;20372;-57
2021/04/02 06:47:33;;;;;;;6.78;2.28;;;;;;;;;;4961914;28;20046;-56
2021/04/02 06:49:59;;;;;;;5.85;1.83;;;;;;;;;;4960535;28;20042;-56
2021/04/02 06:52:25;;;;;;;5.90;1.70;;;;;;;;;;4961192;28;20074;-55
2021/04/02 06:54:53;;;;;;;9.25;2.25;;;;;;;;;;4961390;28;20147;-57
2021/04/02 06:57:20;;;;;;;6.65;2.10;;;;;;;;;;4962064;28;20059;-57
2021/04/02 06:59:47;;;;;;;7.70;2.00;;;;;;;;;;4960882;28;20508;-56
2021/04/02 07:02:14;;;;;;;10.80;2.60;;;;;;;;;;4961227;28;20043;-53
2021/04/02 07:04:42;;;;;;;5.32;1.90;;;;;;;;;;4961530;28;20142;-56
2021/04/02 07:07:10;;;;;;;6.22;1.90;;;;;;;;;;4990864;28;20085;-57
2021/04/02 07:09:39;;;;;;;11.98;2.35;;;;;;;;;;4960384;28;20042;-55
2021/04/02 07:12:06;;;;;;;10.27;2.22;;;;;;;;;;4960778;28;20084;-57
2021/04/02 07:14:33;;;;;;;10.80;2.40;;;;;;;;;;4959350;28;20042;-58
2021/04/02 07:16:59;;;;;;;5.75;2.10;;;;;;;;;;4962798;28;20070;-57
2021/04/02 07:19:25;;;;;;;8.77;2.08;;;;;;;;;;4959395;28;20160;-57
2021/04/02 07:21:52;;;;;;;10.27;2.03;;;;;;;;;;4960710;28;20469;-55
2021/04/02 07:24:21;;;;;;;6.18;2.00;;;;;;;;;;4960292;28;20485;-57
2021/04/02 07:26:47;;;;;;;6.65;2.33;;;;;;;;;;4961427;28;20050;-54
2021/04/02 07:29:14;;;;;;;6.57;2.13;;;;;;;;;;4960831;28;20035;-57
2021/04/02 07:31:40;;;;;;;4.05;1.60;;;;;;;;;;4959415;28;21309;-56
2021/04/02 07:34:06;;;;;;;8.93;2.10;;;;;;;;;;4961707;28;20547;-57
2021/04/02 07:36:36;;;;;;;7.80;1.80;;;;;;;;;;4962950;28;20039;-56
2021/04/02 07:39:04;;;;;;;4.30;1.48;;;;;;;;;;4962804;28;20038;-54
2021/04/02 07:41:30;;;;;;;7.00;1.52;;;;;;;;;;4961558;28;20177;-56
2021/04/02 07:43:57;;;;;;;6.22;1.80;;;;;;;;;;4961096;28;20030;-56
2021/04/02 07:46:25;;;;;;;6.45;2.35;;;;;;;;;;4961893;28;20488;-57
2021/04/02 07:48:56;;;;;;;6.60;1.52;;;;;;;;;;4960682;28;20058;-57
2021/04/02 07:51:22;;;;;;;5.95;2.15;;;;;;;;;;4959972;28;20049;-57
2021/04/02 07:53:47;;;;;;;3.50;1.38;;;;;;;;;;4961226;28;20039;-57
2021/04/02 07:56:15;;;;;;;8.98;2.17;;;;;;;;;;4959887;28;20388;-56
2021/04/02 07:58:48;;;;;;;5.82;2.00;;;;;;;;;;4960222;28;20464;-56
2021/04/02 08:01:14;;;;;;;;;;;;;;;;;;4962744;28;20117;-56
2021/04/02 08:03:39;;;;;;;6.38;1.67;;;;;;;;;;4959779;28;20028;-56
2021/04/02 08:06:05;;;;;;;8.77;2.75;;;;;;;;;;4959219;28;20065;-56
2021/04/02 08:08:42;;;;;;;5.68;1.88;;;;;;;;;;4960394;28;20109;-55
2021/04/02 08:11:10;;;;;;;6.60;2.10;;;;;;;;;;4960006;28;20070;-56
2021/04/02 08:13:54;;;;;;;6.22;2.17;;;;;;;;;;4961525;28;20082;-56
2021/04/02 08:16:35;;;;;;;6.78;1.80;;;;;;;;;;4960790;28;20583;-56
2021/04/02 08:19:04;;;;;;;5.93;2.10;;;;;;;;;;4959909;28;20050;-58
2021/04/02 08:21:30;;;;;;;7.78;1.98;;;;;;;;;;4960239;28;20053;-56
2021/04/02 08:23:58;;;;;;;9.80;2.33;;;;;;;;;;4960991;28;20038;-58
2021/04/02 08:26:29;;;;;;;6.22;2.08;;;;;;;;;;4960106;28;20066;-54
2021/04/02 08:28:55;;;;;;;7.90;2.30;;;;;;;;;;4961371;28;20066;-56
2021/04/02 08:31:21;;;;;;;9.35;2.50;;;;;;;;;;4960419;28;20077;-56
2021/04/02 08:33:46;;;;;;;10.35;2.90;;;;;;;;;;4961406;28;20042;-57
2021/04/02 08:36:12;;;;;;;8.70;1.83;;;;;;;;;;4963126;28;20045;-56
2021/04/02 08:38:45;;;;;;;6.07;1.90;;;;;;;;;;4963936;28;20039;-57
2021/04/02 08:41:21;;;;;;;6.75;1.77;;;;;;;;;;4964381;28;20042;-56
2021/04/02 08:43:47;;;;;;;6.30;1.80;;;;;;;;;;4964796;28;20451;-56
2021/04/02 08:46:17;;;;;;;8.30;2.17;;;;;;;;;;4963687;28;20038;-56
2021/04/02 08:48:47;;;;;;;7.70;1.95;;;;;;;;;;4964015;28;20094;-56
2021/04/02 08:51:20;;;;;;;7.75;1.83;;;;;;;;;;4966420;28;20039;-56
2021/04/02 08:53:46;;;;;;;11.60;1.57;;;;;;;;;;4963967;28;20042;-57
2021/04/02 08:56:19;;;;;;;4.95;1.40;;;;;;;;;;4964171;28;20284;-57
2021/04/02 08:58:45;;;;;;;12.38;2.22;;;;;;;;;;4964030;28;20045;-56
2021/04/02 09:01:15;;;;;;;4.38;1.38;;;;;;;;;;4966073;28;20534;-55
2021/04/02 09:03:42;;;;;;;8.10;1.85;;;;;;;;;;4963682;28;20084;-56
2021/04/02 09:06:08;;;;;;;4.07;1.48;;;;;;;;;;4964817;28;20042;-57
2021/04/02 09:08:37;;;;;;;7.97;1.30;;;;;;;;;;4965562;28;20122;-57
2021/04/02 09:11:10;;;;;;;5.63;1.35;;;;;;;;;;4965679;28;20050;-56
2021/04/02 09:13:43;;;;;;;6.18;1.35;;;;;;;;;;4964183;28;20038;-54
2021/04/02 09:16:10;;;;;;;4.33;1.00;;;;;;;;;;4966339;28;20042;-55
2021/04/02 09:18:53;;;;;;;5.25;1.30;;;;;;;;;;4963724;28;20280;-55
2021/04/02 09:21:21;;;;;;;5.05;1.55;;;;;;;;;;4963275;28;20102;-57
2021/04/02 09:23:48;;;;;;;6.55;1.50;;;;;;;;;;4951604;28;20105;-56
2021/04/02 09:26:14;;;;;;;4.28;1.27;;;;;;;;;;4964165;28;20508;-54
2021/04/02 09:28:40;;;;;;;4.13;1.27;;;;;;;;;;4962925;28;20050;-56
2021/04/02 09:31:18;;;;;;;4.80;1.48;;;;;;;;;;4963991;28;20449;-56
2021/04/02 09:33:45;;;;;;;6.05;1.63;;;;;;;;;;4963149;28;20046;-55
2021/04/02 09:36:11;;;;;;;5.75;1.40;;;;;;;;;;4963267;28;20500;-55
2021/04/02 09:38:37;;;;;;;5.32;1.67;;;;;;;;;;4961691;28;20051;-56
2021/04/02 09:41:03;;;;;;;5.15;1.20;;;;;;;;;;4963233;28;20045;-57
2021/04/02 09:43:48;;;;;;;6.38;1.60;;;;;;;;;;4962615;28;20066;-56
2021/04/02 09:46:31;;;;;;;4.60;1.55;;;;;;;;;;4964250;28;20065;-56
2021/04/02 09:49:08;;;;;;;6.88;1.80;;;;;;;;;;4964312;28;20124;-53
2021/04/02 09:51:35;;;;;;;4.63;1.55;;;;;;;;;;4963520;28;20043;-55
2021/04/02 09:54:01;;;;;;;5.03;1.10;;;;;;;;;;4962405;28;20039;-56
2021/04/02 09:56:27;;;;;;;3.15;1.10;;;;;;;;;;4962307;28;20614;-56
2021/04/02 09:58:53;;;;;;;5.10;1.25;;;;;;;;;;4961966;28;20054;-57
2021/04/02 10:01:19;;;;;;;8.30;1.45;;;;;;;;;;4962351;28;20078;-57
2021/04/02 10:03:45;;;;;;;4.50;1.85;;;;;;;;;;4962629;28;20068;-56
2021/04/02 10:06:11;;;;;;;4.82;1.52;;;;;;;;;;4963821;28;20173;-56
2021/04/02 10:08:37;;;;;;;4.88;1.60;;;;;;;;;;4960655;28;20857;-56
2021/04/02 10:11:02;;;;;;;7.30;1.77;;;;;;;;;;4962617;28;20093;-57
2021/04/02 10:13:28;;;;;;;4.70;1.50;;;;;;;;;;4960808;28;20038;-57
2021/04/02 10:15:54;;;;;;;7.00;1.77;;;;;;;;;;4961714;28;20456;-54
2021/04/02 10:18:20;;;;;;;4.15;1.30;;;;;;;;;;4962579;28;20615;-56
2021/04/02 10:20:47;;;;;;;7.10;1.70;;;;;;;;;;4963023;28;20041;-57
2021/04/02 10:23:17;;;;;;;3.67;1.38;;;;;;;;;;4965198;28;20042;-58
2021/04/02 10:25:43;;;;;;;2.80;0.98;;;;;;;;;;4955123;28;20305;-57
2021/04/02 10:28:09;;;;;;;8.63;1.70;;;;;;;;;;4963011;28;20050;-56
2021/04/02 10:30:35;;;;;;;4.85;1.45;;;;;;;;;;4961946;28;20098;-57
2021/04/02 10:33:01;;;;;;;4.38;1.30;;;;;;;;;;4966702;28;20124;-52
2021/04/02 10:35:27;;;;;;;5.15;1.40;;;;;;;;;;4962312;28;20066;-55
2021/04/02 10:37:54;;;;;;;4.25;1.30;;;;;;;;;;4962561;28;20830;-56
2021/04/02 10:40:20;;;;;;;3.80;1.50;;;;;;;;;;4961428;28;20772;-55
2021/04/02 10:42:46;;;;;;;6.28;1.50;;;;;;;;;;4962714;28;20670;-58
2021/04/02 10:45:12;;;;;;;6.20;1.58;;;;;;;;;;4961204;28;20052;-57
2021/04/02 10:47:38;;;;;;;4.45;1.58;;;;;;;;;;4962318;28;20074;-57
2021/04/02 10:50:04;;;;;;;8.02;1.63;;;;;;;;;;4962264;28;20130;-54
2021/04/02 10:52:30;;;;;;;6.82;1.67;;;;;;;;;;4962079;28;20042;-56
2021/04/02 10:54:56;;;;;;;3.80;1.63;;;;;;;;;;4960491;28;20078;-54
2021/04/02 10:57:21;;;;;;;7.10;2.17;;;;;;;;;;4960297;28;20043;-57
2021/04/02 10:59:47;;;;;;;6.05;1.60;;;;;;;;;;4960655;28;20053;-57
2021/04/02 11:02:13;;;;;;;4.30;1.50;;;;;;;;;;4963465;28;20105;-57
2021/04/02 11:04:40;;;;;;;3.83;1.65;;;;;;;;;;4959643;28;20043;-55
2021/04/02 11:07:07;;;;;;;7.88;1.85;;;;;;;;;;4961792;28;20062;-55
2021/04/02 11:09:32;;;;;;;4.32;1.65;;;;;;;;;;4961998;28;20085;-57
2021/04/02 11:11:58;;;;;;;5.05;1.65;;;;;;;;;;4959813;28;20050;-55
2021/04/02 11:14:24;;;;;;;4.60;1.70;;;;;;;;;;4961563;28;20104;-57
2021/04/02 11:16:50;;;;;;;7.70;1.58;;;;;;;;;;4962403;28;20069;-56
2021/04/02 11:19:16;;;;;;;3.75;1.70;;;;;;;;;;4960411;28;20053;-57
2021/04/02 11:21:42;;;;;;;3.78;1.55;;;;;;;;;;4961563;28;20654;-54
2021/04/02 11:24:08;;;;;;;6.93;2.03;;;;;;;;;;4961432;28;20038;-54
2021/04/02 11:26:34;;;;;;;8.73;2.00;;;;;;;;;;4960993;28;20069;-55
2021/04/02 11:29:00;;;;;;;5.15;1.77;;;;;;;;;;4962259;28;20062;-56
2021/04/02 11:31:26;;;;;;;6.70;1.95;;;;;;;;;;4961757;28;20038;-56
2021/04/02 11:33:52;;;;;;;7.28;1.70;;;;;;;;;;4961932;28;20057;-57
2021/04/02 11:36:18;;;;;;;7.35;2.03;;;;;;;;;;4959852;28;20115;-57
2021/04/02 11:38:44;;;;;;;6.45;1.83;;;;;;;;;;4959571;28;20047;-56
2021/04/02 11:41:11;;;;;;;5.65;1.80;;;;;;;;;;4959023;28;20046;-55
2021/04/02 11:43:37;;;;;;;7.20;1.85;;;;;;;;;;4959071;28;20737;-56
2021/04/02 11:46:03;;;;;;;7.30;2.28;;;;;;;;;;4961347;28;20042;-57
2021/04/02 11:48:28;;;;;;;6.72;1.98;;;;;;;;;;4960431;28;20058;-57
2021/04/02 11:50:54;;;;;;;3.58;1.60;;;;;;;;;;4961138;28;20149;-55
2021/04/02 11:53:20;;;;;;;5.45;1.92;;;;;;;;;;4958585;28;20039;-57
2021/04/02 11:55:46;;;;;;;4.90;2.00;;;;;;;;;;4960280;28;20047;-56
2021/04/02 11:58:13;;;;;;;6.07;2.35;;;;;;;;;;4960508;28;20715;-57
2021/04/02 12:00:39;;;;;;;8.50;2.10;;;;;;;;;;4958279;28;20035;-57
2021/04/02 12:03:05;;;;;;;5.20;1.98;;;;;;;;;;4960650;28;20062;-57
2021/04/02 12:05:31;;;;;;;11.05;2.30;;;;;;;;;;4958966;28;20054;-56
2021/04/02 12:07:57;;;;;;;8.88;2.28;;;;;;;;;;4962010;28;20061;-57
2021/04/02 12:10:23;;;;;;;5.93;2.25;;;;;;;;;;4963454;28;21499;-55
2021/04/02 12:12:49;;;;;;;7.38;2.60;;;;;;;;;;4967799;28;20430;-57
2021/04/02 12:15:15;;;;;;;5.70;2.25;;;;;;;;;;4967255;28;20042;-57
2021/04/02 12:17:41;;;;;;;9.88;2.08;;;;;;;;;;4967076;28;20307;-57
2021/04/02 12:20:09;;;;;;;5.95;2.10;;;;;;;;;;4967655;28;20042;-54
2021/04/02 12:22:35;;;;;;;10.27;2.38;;;;;;;;;;4968135;28;20394;-57
2021/04/02 12:25:01;;;;;;;7.70;2.47;;;;;;;;;;4967108;28;20038;-54
2021/04/02 12:27:27;;;;;;;5.82;2.15;;;;;;;;;;4966576;28;20050;-57
2021/04/02 12:29:55;;;;;;;8.75;2.25;;;;;;;;;;4967132;28;20045;-56
2021/04/02 12:32:24;;;;;;;7.40;2.38;;;;;;;;;;4966849;28;20132;-56
2021/04/02 12:34:51;;;;;;;6.05;2.15;;;;;;;;;;4965444;28;20046;-52
2021/04/02 12:37:17;;;;;;;8.48;2.03;;;;;;;;;;4966679;28;20502;-54
2021/04/02 12:39:43;;;;;;;4.95;2.25;;;;;;;;;;4965445;28;20043;-55
2021/04/02 12:42:09;;;;;;;7.95;2.00;;;;;;;;;;4967328;28;20038;-52
2021/04/02 12:44:34;;;;;;;6.20;1.98;;;;;;;;;;4964824;28;20046;-53
2021/04/02 12:47:00;;;;;;;5.85;2.20;;;;;;;;;;4967761;28;20047;-56
2021/04/02 12:49:26;;;;;;;8.77;1.98;;;;;;;;;;4966447;28;20065;-57
2021/04/02 12:51:52;;;;;;;12.32;2.88;;;;;;;;;;4967887;28;20047;-55
2021/04/02 12:54:18;;;;;;;16.13;3.25;;;;;;;;;;4966129;28;20039;-53
2021/04/02 12:56:44;;;;;;;6.93;2.50;;;;;;;;;;4967944;28;20153;-55
2021/04/02 12:59:10;;;;;;;13.20;2.45;;;;;;;;;;4967415;28;20552;-53
2021/04/02 13:01:36;;;;;;;8.90;3.25;;;;;;;;;;4967257;28;20047;-52
2021/04/02 13:04:02;;;;;;;10.10;2.95;;;;;;;;;;4967428;28;20663;-52
2021/04/02 13:06:28;;;;;;;13.50;3.50;;;;;;;;;;4965541;28;20046;-53
2021/04/02 13:08:54;;;;;;;7.95;2.88;;;;;;;;;;4966606;28;20055;-55
2021/04/02 13:11:21;;;;;;;11.50;2.70;;;;;;;;;;4967103;28;20050;-54
2021/04/02 13:13:47;;;;;;;9.63;2.50;;;;;;;;;;4967161;28;20054;-54
2021/04/02 13:16:14;;;;;;;7.97;2.40;;;;;;;;;;4968331;28;20038;-56
2021/04/02 13:18:39;;;;;;;13.15;3.20;;;;;;;;;;4966587;28;20129;-56
2021/04/02 13:21:05;;;;;;;8.95;2.80;;;;;;;;;;4965658;28;20108;-55
2021/04/02 13:23:31;;;;;;;12.20;3.15;;;;;;;;;;4962282;28;20038;-54
2021/04/02 13:25:57;;;;;;;12.75;3.47;;;;;;;;;;4965739;28;20697;-55
2021/04/02 13:28:23;;;;;;;9.80;2.80;;;;;;;;;;4963244;28;20096;-56
2021/04/02 13:30:50;;;;;;;11.35;2.30;;;;;;;;;;4964969;28;20876;-52
2021/04/02 13:33:17;;;;;;;6.90;2.40;;;;;;;;;;4945935;28;20035;-56
2021/04/02 13:35:43;;;;;;;12.50;2.85;;;;;;;;;;4963666;28;20046;-54
2021/04/02 13:38:09;;;;;;;6.60;2.50;;;;;;;;;;4964066;28;20623;-56
2021/04/02 13:40:35;;;;;;;8.05;3.22;;;;;;;;;;4962558;28;20412;-56
2021/04/02 13:43:01;;;;;;;9.68;2.60;;;;;;;;;;4960578;28;20738;-56
2021/04/02 13:45:27;;;;;;;9.02;2.40;;;;;;;;;;4959749;28;20802;-57
2021/04/02 13:47:53;;;;;;;10.43;2.55;;;;;;;;;;4962558;28;20055;-56
2021/04/02 13:50:20;;;;;;;6.18;2.80;;;;;;;;;;4964538;28;20790;-54
2021/04/02 13:52:47;;;;;;;7.22;2.90;;;;;;;;;;4944107;28;20047;-53
2021/04/02 13:55:13;;;;;;;12.95;2.90;;;;;;;;;;4972933;28;20932;-56
2021/04/02 13:57:39;;;;;;;13.07;2.50;;;;;;;;;;4942733;28;20043;-53
2021/04/02 14:00:07;;;;;;;8.18;2.72;;;;;;;;;;4942080;28;20050;-56
2021/04/02 14:02:33;;;;;;;12.40;3.42;;;;;;;;;;4942612;28;20112;-56
2021/04/02 14:04:59;;;;;;;17.50;3.05;;;;;;;;;;4944706;28;20521;-52
2021/04/02 14:07:25;;;;;;;11.68;3.42;;;;;;;;;;4960094;28;20626;-56
2021/04/02 14:09:50;;;;;;;10.90;3.45;;;;;;;;;;4943913;28;20090;-55
2021/04/02 14:12:16;;;;;;;9.23;3.10;;;;;;;;;;4944050;28;20037;-57
2021/04/02 14:14:42;;;;;;;10.43;2.85;;;;;;;;;;4942149;28;20110;-55
2021/04/02 14:17:08;;;;;;;15.75;3.45;;;;;;;;;;4944057;28;20047;-56
2021/04/02 14:19:34;;;;;;;15.88;4.30;;;;;;;;;;4944154;28;20074;-57
2021/04/02 14:22:00;;;;;;;14.95;4.15;;;;;;;;;;4961799;28;20119;-57
2021/04/02 14:24:26;;;;;;;19.75;4.32;;;;;;;;;;4960816;28;20093;-55
2021/04/02 14:26:52;;;;;;;15.75;5.47;;;;;;;;;;4959864;28;20039;-53
2021/04/02 14:29:18;;;;;;;13.40;5.38;;;;;;;;;;4961208;28;20368;-55
2021/04/02 14:31:46;;;;;;;13.43;5.18;;;;;;;;;;4962261;28;20389;-56
2021/04/02 14:34:11;;;;;;;19.20;5.65;;;;;;;;;;4960932;28;20039;-57
2021/04/02 14:36:37;;;;;;;14.07;4.15;;;;;;;;;;4961421;28;20050;-57
2021/04/02 14:39:04;;;;;;;18.27;5.03;;;;;;;;;;4964142;28;20092;-55
2021/04/02 14:41:30;;;;;;;7.75;3.67;;;;;;;;;;4962319;28;20399;-57